createdAt,value
2017-12-04T00:00:48.787Z,1016.05
2017-12-04T00:01:48.766Z,1015.99
2017-12-04T00:02:48.744Z,1016.04
2017-12-04T00:03:48.735Z,1015.98
2017-12-04T00:04:48.702Z,1015.98
2017-12-04T00:05:48.684Z,1015.98
2017-12-04T00:06:48.659Z,1016.06
2017-12-04T00:07:48.637Z,1016.08
2017-12-04T00:08:48.615Z,1016.08
2017-12-04T00:09:48.593Z,1016.06
2017-12-04T00:10:48.573Z,1016.08
2017-12-04T00:11:48.550Z,1016
2017-12-04T00:12:48.528Z,1016
2017-12-04T00:13:48.509Z,1016
2017-12-04T00:14:48.484Z,1016
2017-12-04T00:15:48.464Z,1015.99
2017-12-04T00:16:48.446Z,1015.98
2017-12-04T00:17:48.422Z,1016.02
2017-12-04T00:18:48.401Z,1015.99
2017-12-04T00:19:48.378Z,1015.93
2017-12-04T00:20:48.359Z,1015.95
2017-12-04T00:21:48.337Z,1015.98
2017-12-04T00:22:48.314Z,1015.93
2017-12-04T00:23:48.295Z,1015.94
2017-12-04T00:24:48.280Z,1016
2017-12-04T00:25:48.251Z,1015.93
2017-12-04T00:26:48.228Z,1015.92
2017-12-04T00:27:48.207Z,1015.89
2017-12-04T00:28:48.187Z,1015.91
2017-12-04T00:29:48.166Z,1015.9
2017-12-04T00:30:48.142Z,1015.84
2017-12-04T00:31:48.121Z,1015.85
2017-12-04T00:32:48.101Z,1015.86
2017-12-04T00:33:48.078Z,1015.91
2017-12-04T00:34:48.055Z,1015.92
2017-12-04T00:35:48.036Z,1015.91
2017-12-04T00:36:48.012Z,1015.94
2017-12-04T00:37:47.991Z,1015.95
2017-12-04T00:38:47.969Z,1015.99
2017-12-04T00:39:47.946Z,1015.97
2017-12-04T00:40:47.927Z,1015.98
2017-12-04T00:41:47.906Z,1015.93
2017-12-04T00:42:47.881Z,1015.93
2017-12-04T00:43:47.863Z,1015.91
2017-12-04T00:44:47.838Z,1015.85
2017-12-04T00:45:47.818Z,1015.92
2017-12-04T00:46:47.795Z,1015.93
2017-12-04T00:47:47.774Z,1015.92
2017-12-04T00:48:47.753Z,1015.89
2017-12-04T00:49:47.732Z,1015.9
2017-12-04T00:50:47.709Z,1015.89
2017-12-04T00:51:47.688Z,1015.85
2017-12-04T00:52:47.667Z,1015.96
2017-12-04T00:53:47.645Z,1015.88
2017-12-04T00:54:47.622Z,1015.94
2017-12-04T00:55:47.602Z,1015.94
2017-12-04T00:56:47.580Z,1015.96
2017-12-04T00:57:47.558Z,1016.01
2017-12-04T00:58:47.537Z,1016.04
2017-12-04T00:59:47.517Z,1016.04
2017-12-04T01:00:47.495Z,1016.05
2017-12-04T01:01:47.486Z,1016.04
2017-12-04T01:02:47.452Z,1016.13
2017-12-04T01:03:47.430Z,1016.16
2017-12-04T01:04:47.410Z,1016.1
2017-12-04T01:05:47.387Z,1016.12
2017-12-04T01:06:47.369Z,1016.13
2017-12-04T01:07:47.347Z,1016.17
2017-12-04T01:08:47.325Z,1016.11
2017-12-04T01:09:47.302Z,1016.1
2017-12-04T01:10:47.282Z,1016.13
2017-12-04T01:11:47.259Z,1016.09
2017-12-04T01:12:47.238Z,1016.11
2017-12-04T01:13:47.217Z,1016.1
2017-12-04T01:14:47.199Z,1016.07
2017-12-04T01:15:47.173Z,1016.16
2017-12-04T01:16:47.154Z,1016.18
2017-12-04T01:17:47.131Z,1016.18
2017-12-04T01:18:47.110Z,1016.13
2017-12-04T01:19:47.088Z,1016.19
2017-12-04T01:20:47.068Z,1016.22
2017-12-04T01:21:47.046Z,1016.27
2017-12-04T01:22:47.026Z,1016.26
2017-12-04T01:23:47.005Z,1016.26
2017-12-04T01:24:46.984Z,1016.18
2017-12-04T01:25:46.969Z,1016.24
2017-12-04T01:26:46.940Z,1016.24
2017-12-04T01:27:46.919Z,1016.23
2017-12-04T01:28:46.897Z,1016.18
2017-12-04T01:29:46.876Z,1016.18
2017-12-04T01:30:46.855Z,1016.18
2017-12-04T01:31:46.835Z,1016.28
2017-12-04T01:32:46.813Z,1016.27
2017-12-04T01:33:46.791Z,1016.27
2017-12-04T01:34:46.770Z,1016.28
2017-12-04T01:35:46.749Z,1016.23
2017-12-04T01:36:46.729Z,1016.21
2017-12-04T01:37:46.708Z,1016.25
2017-12-04T01:38:46.684Z,1016.3
2017-12-04T01:39:46.664Z,1016.27
2017-12-04T01:40:46.848Z,1016.29
2017-12-04T01:41:46.621Z,1016.35
2017-12-04T01:42:46.600Z,1016.37
2017-12-04T01:43:46.580Z,1016.37
2017-12-04T01:44:46.558Z,1016.38
2017-12-04T01:45:46.537Z,1016.36
2017-12-04T01:46:46.528Z,1016.39
2017-12-04T01:47:46.494Z,1016.43
2017-12-04T01:48:46.473Z,1016.44
2017-12-04T01:49:46.452Z,1016.45
2017-12-04T01:50:46.430Z,1016.44
2017-12-04T01:51:46.411Z,1016.42
2017-12-04T01:52:46.388Z,1016.39
2017-12-04T01:53:46.368Z,1016.47
2017-12-04T01:54:46.347Z,1016.42
2017-12-04T01:55:46.326Z,1016.4
2017-12-04T01:56:46.305Z,1016.42
2017-12-04T01:57:46.285Z,1016.44
2017-12-04T01:58:46.264Z,1016.37
2017-12-04T01:59:46.242Z,1016.41
2017-12-04T02:00:46.220Z,1016.46
2017-12-04T02:01:46.200Z,1016.41
2017-12-04T02:02:46.180Z,1016.43
2017-12-04T02:03:46.158Z,1016.39
2017-12-04T02:04:46.137Z,1016.37
2017-12-04T02:05:46.119Z,1016.3
2017-12-04T02:06:46.099Z,1016.33
2017-12-04T02:07:46.075Z,1016.28
2017-12-04T02:08:46.050Z,1016.29
2017-12-04T02:09:46.030Z,1016.3
2017-12-04T02:10:46.010Z,1016.31
2017-12-04T02:11:45.998Z,1016.31
2017-12-04T02:12:45.967Z,1016.32
2017-12-04T02:13:45.949Z,1016.37
2017-12-04T02:14:45.925Z,1016.28
2017-12-04T02:15:45.906Z,1016.33
2017-12-04T02:16:45.881Z,1016.37
2017-12-04T02:17:45.862Z,1016.36
2017-12-04T02:18:45.843Z,1016.43
2017-12-04T02:19:45.820Z,1016.41
2017-12-04T02:20:45.801Z,1016.39
2017-12-04T02:21:45.778Z,1016.42
2017-12-04T02:22:45.756Z,1016.36
2017-12-04T02:23:45.736Z,1016.35
2017-12-04T02:24:45.714Z,1016.32
2017-12-04T02:25:45.693Z,1016.38
2017-12-04T02:26:45.689Z,1016.38
2017-12-04T02:27:45.651Z,1016.36
2017-12-04T02:28:45.630Z,1016.36
2017-12-04T02:29:45.608Z,1016.37
2017-12-04T02:30:45.589Z,1016.4
2017-12-04T02:31:45.573Z,1016.39
2017-12-04T02:32:45.545Z,1016.38
2017-12-04T02:33:45.526Z,1016.38
2017-12-04T02:34:45.507Z,1016.38
2017-12-04T02:35:45.485Z,1016.36
2017-12-04T02:36:45.462Z,1016.34
2017-12-04T02:37:45.444Z,1016.32
2017-12-04T02:38:45.425Z,1016.33
2017-12-04T02:39:45.398Z,1016.32
2017-12-04T02:40:45.379Z,1016.3
2017-12-04T02:41:45.357Z,1016.3
2017-12-04T02:42:45.336Z,1016.29
2017-12-04T02:43:45.313Z,1016.31
2017-12-04T02:44:45.294Z,1016.3
2017-12-04T02:45:45.273Z,1016.33
2017-12-04T02:46:45.252Z,1016.29
2017-12-04T02:47:45.230Z,1016.31
2017-12-04T02:48:45.209Z,1016.3
2017-12-04T02:49:45.190Z,1016.31
2017-12-04T02:50:45.169Z,1016.3
2017-12-04T02:51:45.150Z,1016.33
2017-12-04T02:52:45.126Z,1016.29
2017-12-04T02:53:45.106Z,1016.29
2017-12-04T02:54:45.084Z,1016.28
2017-12-04T02:55:45.063Z,1016.28
2017-12-04T02:56:45.043Z,1016.25
2017-12-04T02:57:45.021Z,1016.26
2017-12-04T02:58:45.000Z,1016.29
2017-12-04T02:59:44.981Z,1016.31
2017-12-04T03:00:44.966Z,1016.33
2017-12-04T03:01:44.937Z,1016.37
2017-12-04T03:02:44.916Z,1016.42
2017-12-04T03:03:44.896Z,1016.42
2017-12-04T03:04:44.875Z,1016.4
2017-12-04T03:05:44.870Z,1016.38
2017-12-04T03:06:44.835Z,1016.4
2017-12-04T03:07:44.812Z,1016.37
2017-12-04T03:08:44.792Z,1016.41
2017-12-04T03:09:44.770Z,1016.42
2017-12-04T03:10:44.749Z,1016.44
2017-12-04T03:11:44.733Z,1016.43
2017-12-04T03:12:44.706Z,1016.43
2017-12-04T03:13:44.686Z,1016.48
2017-12-04T03:14:44.665Z,1016.49
2017-12-04T03:15:44.647Z,1016.44
2017-12-04T03:16:44.626Z,1016.42
2017-12-04T03:17:44.603Z,1016.43
2017-12-04T03:18:44.583Z,1016.42
2017-12-04T03:19:44.563Z,1016.42
2017-12-04T03:20:44.541Z,1016.39
2017-12-04T03:21:44.520Z,1016.33
2017-12-04T03:22:44.501Z,1016.37
2017-12-04T03:23:44.476Z,1016.36
2017-12-04T03:24:44.461Z,1016.37
2017-12-04T03:25:44.438Z,1016.37
2017-12-04T03:26:44.415Z,1016.34
2017-12-04T03:27:44.399Z,1016.33
2017-12-04T03:28:44.374Z,1016.33
2017-12-04T03:29:44.355Z,1016.39
2017-12-04T03:30:44.343Z,1016.42
2017-12-04T03:31:44.311Z,1016.4
2017-12-04T03:32:44.292Z,1016.46
2017-12-04T03:33:44.280Z,1016.39
2017-12-04T03:34:44.250Z,1016.4
2017-12-04T03:35:44.231Z,1016.42
2017-12-04T03:36:44.209Z,1016.37
2017-12-04T03:37:44.188Z,1016.35
2017-12-04T03:38:44.167Z,1016.35
2017-12-04T03:39:44.146Z,1016.36
2017-12-04T03:40:44.334Z,1016.4
2017-12-04T03:41:44.103Z,1016.42
2017-12-04T03:42:44.084Z,1016.4
2017-12-04T03:43:44.062Z,1016.43
2017-12-04T03:44:44.042Z,1016.46
2017-12-04T03:45:44.019Z,1016.47
2017-12-04T03:46:43.999Z,1016.45
2017-12-04T03:47:43.979Z,1016.52
2017-12-04T03:48:43.960Z,1016.5
2017-12-04T03:49:43.937Z,1016.49
2017-12-04T03:50:43.918Z,1016.48
2017-12-04T03:51:43.897Z,1016.47
2017-12-04T03:52:43.880Z,1016.43
2017-12-04T03:53:43.853Z,1016.46
2017-12-04T03:54:43.835Z,1016.47
2017-12-04T03:55:43.813Z,1016.47
2017-12-04T03:56:43.790Z,1016.44
2017-12-04T03:57:43.771Z,1016.45
2017-12-04T03:58:43.751Z,1016.45
2017-12-04T03:59:43.736Z,1016.46
2017-12-04T04:00:43.709Z,1016.53
2017-12-04T04:01:43.688Z,1016.53
2017-12-04T04:02:43.666Z,1016.55
2017-12-04T04:03:43.646Z,1016.51
2017-12-04T04:04:43.629Z,1016.51
2017-12-04T04:05:43.604Z,1016.46
2017-12-04T04:06:43.583Z,1016.5
2017-12-04T04:07:43.561Z,1016.45
2017-12-04T04:08:43.544Z,1016.47
2017-12-04T04:09:43.520Z,1016.46
2017-12-04T04:10:43.499Z,1016.44
2017-12-04T04:11:43.477Z,1016.44
2017-12-04T04:12:43.460Z,1016.44
2017-12-04T04:13:43.436Z,1016.45
2017-12-04T04:14:43.421Z,1016.42
2017-12-04T04:15:43.396Z,1016.47
2017-12-04T04:16:43.381Z,1016.43
2017-12-04T04:17:43.353Z,1016.44
2017-12-04T04:18:43.333Z,1016.42
2017-12-04T04:19:43.311Z,1016.47
2017-12-04T04:20:43.294Z,1016.49
2017-12-04T04:21:43.270Z,1016.48
2017-12-04T04:22:43.249Z,1016.53
2017-12-04T04:23:43.231Z,1016.53
2017-12-04T04:24:43.209Z,1016.5
2017-12-04T04:25:43.187Z,1016.56
2017-12-04T04:26:43.167Z,1016.57
2017-12-04T04:27:43.145Z,1016.54
2017-12-04T04:28:43.125Z,1016.55
2017-12-04T04:29:43.104Z,1016.53
2017-12-04T04:30:43.081Z,1016.5
2017-12-04T04:31:43.063Z,1016.49
2017-12-04T04:32:43.050Z,1016.56
2017-12-04T04:33:43.021Z,1016.56
2017-12-04T04:34:43.000Z,1016.54
2017-12-04T04:35:42.979Z,1016.53
2017-12-04T04:36:42.958Z,1016.52
2017-12-04T04:37:42.939Z,1016.54
2017-12-04T04:38:42.918Z,1016.56
2017-12-04T04:39:42.898Z,1016.51
2017-12-04T04:40:42.878Z,1016.47
2017-12-04T04:41:42.855Z,1016.49
2017-12-04T04:42:42.837Z,1016.49
2017-12-04T04:43:42.814Z,1016.48
2017-12-04T04:44:42.804Z,1016.53
2017-12-04T04:45:42.772Z,1016.5
2017-12-04T04:46:42.752Z,1016.45
2017-12-04T04:47:42.762Z,1016.48
2017-12-04T04:48:42.710Z,1016.49
2017-12-04T04:49:42.693Z,1016.51
2017-12-04T04:50:42.670Z,1016.49
2017-12-04T04:51:42.650Z,1016.58
2017-12-04T04:52:42.629Z,1016.54
2017-12-04T04:53:42.607Z,1016.51
2017-12-04T04:54:42.586Z,1016.5
2017-12-04T04:55:42.568Z,1016.51
2017-12-04T04:56:42.545Z,1016.53
2017-12-04T04:57:42.524Z,1016.45
2017-12-04T04:58:42.502Z,1016.47
2017-12-04T04:59:42.482Z,1016.5
2017-12-04T05:00:42.462Z,1016.48
2017-12-04T05:01:42.449Z,1016.49
2017-12-04T05:02:42.423Z,1016.49
2017-12-04T05:03:42.400Z,1016.48
2017-12-04T05:04:42.381Z,1016.47
2017-12-04T05:05:42.362Z,1016.49
2017-12-04T05:06:42.341Z,1016.46
2017-12-04T05:07:42.318Z,1016.5
2017-12-04T05:08:42.302Z,1016.5
2017-12-04T05:09:42.275Z,1016.53
2017-12-04T05:10:42.255Z,1016.48
2017-12-04T05:11:42.235Z,1016.53
2017-12-04T05:12:42.217Z,1016.49
2017-12-04T05:13:42.195Z,1016.53
2017-12-04T05:14:42.173Z,1016.58
2017-12-04T05:15:42.153Z,1016.54
2017-12-04T05:16:42.133Z,1016.55
2017-12-04T05:17:42.110Z,1016.54
2017-12-04T05:18:42.093Z,1016.54
2017-12-04T05:19:42.073Z,1016.53
2017-12-04T05:20:42.051Z,1016.53
2017-12-04T05:21:42.029Z,1016.55
2017-12-04T05:22:42.010Z,1016.6
2017-12-04T05:23:41.990Z,1016.57
2017-12-04T05:24:41.971Z,1016.61
2017-12-04T05:25:41.948Z,1016.62
2017-12-04T05:26:41.929Z,1016.63
2017-12-04T05:27:41.906Z,1016.65
2017-12-04T05:28:41.887Z,1016.71
2017-12-04T05:29:41.865Z,1016.67
2017-12-04T05:30:41.845Z,1016.71
2017-12-04T05:31:41.822Z,1016.7
2017-12-04T05:32:41.806Z,1016.71
2017-12-04T05:33:41.783Z,1016.72
2017-12-04T05:34:41.761Z,1016.73
2017-12-04T05:35:41.744Z,1016.76
2017-12-04T05:36:41.723Z,1016.75
2017-12-04T05:37:41.701Z,1016.73
2017-12-04T05:38:41.678Z,1016.78
2017-12-04T05:39:41.657Z,1016.8
2017-12-04T05:40:41.840Z,1016.81
2017-12-04T05:41:41.618Z,1016.76
2017-12-04T05:42:41.595Z,1016.77
2017-12-04T05:43:41.575Z,1016.76
2017-12-04T05:44:41.555Z,1016.77
2017-12-04T05:45:41.547Z,1016.79
2017-12-04T05:46:41.514Z,1016.85
2017-12-04T05:47:41.495Z,1016.82
2017-12-04T05:48:41.472Z,1016.88
2017-12-04T05:49:41.452Z,1016.83
2017-12-04T05:50:41.431Z,1016.84
2017-12-04T05:51:41.412Z,1016.84
2017-12-04T05:52:41.391Z,1016.85
2017-12-04T05:53:41.368Z,1016.86
2017-12-04T05:54:41.348Z,1016.84
2017-12-04T05:55:41.328Z,1016.84
2017-12-04T05:56:41.310Z,1016.83
2017-12-04T05:57:41.287Z,1016.79
2017-12-04T05:58:41.268Z,1016.8
2017-12-04T05:59:41.247Z,1016.8
2017-12-04T06:00:41.226Z,1016.79
2017-12-04T06:01:41.207Z,1016.85
2017-12-04T06:02:41.185Z,1016.82
2017-12-04T06:03:41.163Z,1016.81
2017-12-04T06:04:41.143Z,1016.81
2017-12-04T06:05:41.124Z,1016.79
2017-12-04T06:06:41.102Z,1016.78
2017-12-04T06:07:41.081Z,1016.81
2017-12-04T06:08:41.066Z,1016.82
2017-12-04T06:09:41.039Z,1016.77
2017-12-04T06:10:41.020Z,1016.81
2017-12-04T06:11:41.001Z,1016.8
2017-12-04T06:12:40.985Z,1016.8
2017-12-04T06:13:40.957Z,1016.83
2017-12-04T06:14:40.938Z,1016.83
2017-12-04T06:15:40.916Z,1016.86
2017-12-04T06:16:40.898Z,1016.83
2017-12-04T06:17:40.875Z,1016.91
2017-12-04T06:18:40.868Z,1016.93
2017-12-04T06:19:40.841Z,1016.89
2017-12-04T06:20:40.815Z,1016.9
2017-12-04T06:21:40.794Z,1016.89
2017-12-04T06:22:40.773Z,1016.89
2017-12-04T06:23:40.757Z,1016.84
2017-12-04T06:24:40.734Z,1016.94
2017-12-04T06:25:40.711Z,1016.96
2017-12-04T06:26:40.691Z,1016.99
2017-12-04T06:27:40.673Z,1017.03
2017-12-04T06:28:40.650Z,1017.04
2017-12-04T06:29:40.629Z,1017.02
2017-12-04T06:30:40.610Z,1017.1
2017-12-04T06:31:40.589Z,1017.11
2017-12-04T06:32:40.578Z,1017.14
2017-12-04T06:33:40.547Z,1017.1
2017-12-04T06:34:40.530Z,1017.14
2017-12-04T06:35:40.506Z,1017.1
2017-12-04T06:36:40.484Z,1017.1
2017-12-04T06:37:40.462Z,1017.1
2017-12-04T06:38:40.449Z,1017.11
2017-12-04T06:39:40.422Z,1017.14
2017-12-04T06:40:40.403Z,1017.09
2017-12-04T06:41:40.382Z,1017.17
2017-12-04T06:42:40.362Z,1017.14
2017-12-04T06:43:40.341Z,1017.15
2017-12-04T06:44:40.320Z,1017.2
2017-12-04T06:45:40.301Z,1017.21
2017-12-04T06:46:40.279Z,1017.19
2017-12-04T06:47:40.258Z,1017.23
2017-12-04T06:48:40.236Z,1017.16
2017-12-04T06:49:40.217Z,1017.21
2017-12-04T06:50:40.196Z,1017.22
2017-12-04T06:51:40.176Z,1017.25
2017-12-04T06:52:40.158Z,1017.27
2017-12-04T06:53:40.135Z,1017.27
2017-12-04T06:54:40.114Z,1017.25
2017-12-04T06:55:40.094Z,1017.24
2017-12-04T06:56:40.075Z,1017.25
2017-12-04T06:57:40.053Z,1017.29
2017-12-04T06:58:40.082Z,1017.3
2017-12-04T06:59:40.015Z,1017.33
2017-12-04T07:00:39.990Z,1017.33
2017-12-04T07:01:39.972Z,1017.37
2017-12-04T07:02:39.950Z,1017.36
2017-12-04T07:03:39.928Z,1017.39
2017-12-04T07:04:39.909Z,1017.4
2017-12-04T07:05:39.888Z,1017.4
2017-12-04T07:06:39.866Z,1017.44
2017-12-04T07:07:39.845Z,1017.46
2017-12-04T07:08:39.827Z,1017.45
2017-12-04T07:09:39.807Z,1017.48
2017-12-04T07:10:39.785Z,1017.45
2017-12-04T07:11:39.765Z,1017.48
2017-12-04T07:12:39.746Z,1017.52
2017-12-04T07:13:39.722Z,1017.54
2017-12-04T07:14:39.704Z,1017.56
2017-12-04T07:15:39.681Z,1017.59
2017-12-04T07:16:39.661Z,1017.6
2017-12-04T07:17:39.641Z,1017.63
2017-12-04T07:18:39.627Z,1017.68
2017-12-04T07:19:39.601Z,1017.7
2017-12-04T07:20:39.580Z,1017.67
2017-12-04T07:21:39.560Z,1017.71
2017-12-04T07:22:39.539Z,1017.69
2017-12-04T07:23:39.519Z,1017.74
2017-12-04T07:24:39.498Z,1017.69
2017-12-04T07:25:39.482Z,1017.72
2017-12-04T07:26:39.457Z,1017.77
2017-12-04T07:27:39.445Z,1017.76
2017-12-04T07:28:39.416Z,1017.72
2017-12-04T07:29:39.396Z,1017.76
2017-12-04T07:30:39.375Z,1017.79
2017-12-04T07:31:39.356Z,1017.73
2017-12-04T07:32:39.333Z,1017.77
2017-12-04T07:33:39.315Z,1017.67
2017-12-04T07:34:39.293Z,1017.74
2017-12-04T07:35:39.272Z,1017.66
2017-12-04T07:36:39.253Z,1017.71
2017-12-04T07:37:39.285Z,1017.7
2017-12-04T07:38:39.211Z,1017.66
2017-12-04T07:39:39.191Z,1017.69
2017-12-04T07:40:39.172Z,1017.71
2017-12-04T07:41:39.150Z,1017.68
2017-12-04T07:42:39.135Z,1017.71
2017-12-04T07:43:39.110Z,1017.72
2017-12-04T07:44:39.088Z,1017.74
2017-12-04T07:45:39.070Z,1017.72
2017-12-04T07:46:39.054Z,1017.75
2017-12-04T07:47:39.028Z,1017.77
2017-12-04T07:48:39.010Z,1017.77
2017-12-04T07:49:38.988Z,1017.78
2017-12-04T07:50:38.975Z,1017.84
2017-12-04T07:51:38.945Z,1017.83
2017-12-04T07:52:38.933Z,1017.8
2017-12-04T07:53:38.908Z,1017.86
2017-12-04T07:54:38.897Z,1017.83
2017-12-04T07:55:38.863Z,1017.8
2017-12-04T07:56:38.846Z,1017.81
2017-12-04T07:57:38.822Z,1017.81
2017-12-04T07:58:38.822Z,1017.86
2017-12-04T07:59:38.782Z,1017.85
2017-12-04T08:00:38.787Z,1017.85
2017-12-04T08:01:38.740Z,1017.85
2017-12-04T08:02:38.722Z,1017.87
2017-12-04T08:03:38.701Z,1017.87
2017-12-04T08:04:38.734Z,1017.85
2017-12-04T08:05:38.660Z,1017.82
2017-12-04T08:06:38.639Z,1017.87
2017-12-04T08:07:38.620Z,1017.88
2017-12-04T08:08:38.598Z,1017.87
2017-12-04T08:09:38.579Z,1017.89
2017-12-04T08:10:38.562Z,1017.94
2017-12-04T08:11:38.539Z,1017.95
2017-12-04T08:12:38.518Z,1017.93
2017-12-04T08:13:38.498Z,1017.9
2017-12-04T08:14:38.477Z,1017.9
2017-12-04T08:15:38.464Z,1017.88
2017-12-04T08:16:38.438Z,1017.89
2017-12-04T08:17:38.418Z,1017.95
2017-12-04T08:18:38.399Z,1017.99
2017-12-04T08:19:38.377Z,1017.96
2017-12-04T08:20:38.356Z,1018.02
2017-12-04T08:21:38.339Z,1017.94
2017-12-04T08:22:38.321Z,1017.96
2017-12-04T08:23:38.298Z,1017.95
2017-12-04T08:24:38.280Z,1017.94
2017-12-04T08:25:38.260Z,1017.96
2017-12-04T08:26:38.236Z,1017.95
2017-12-04T08:27:38.218Z,1017.95
2017-12-04T08:28:38.200Z,1017.98
2017-12-04T08:29:38.177Z,1018
2017-12-04T08:30:38.158Z,1017.98
2017-12-04T08:31:38.136Z,1017.98
2017-12-04T08:32:38.117Z,1017.97
2017-12-04T08:33:38.097Z,1018.03
2017-12-04T08:34:38.076Z,1017.95
2017-12-04T08:35:38.055Z,1017.97
2017-12-04T08:36:38.037Z,1017.99
2017-12-04T08:37:38.016Z,1018.01
2017-12-04T08:38:38.003Z,1018.04
2017-12-04T08:39:37.975Z,1018.08
2017-12-04T08:40:37.957Z,1018.13
2017-12-04T08:41:37.936Z,1018.06
2017-12-04T08:42:37.918Z,1018.17
2017-12-04T08:43:37.899Z,1018.16
2017-12-04T08:44:37.879Z,1018.22
2017-12-04T08:45:37.858Z,1018.28
2017-12-04T08:46:37.836Z,1018.27
2017-12-04T08:47:37.815Z,1018.32
2017-12-04T08:48:37.796Z,1018.31
2017-12-04T08:49:37.775Z,1018.35
2017-12-04T08:50:37.756Z,1018.36
2017-12-04T08:51:37.736Z,1018.27
2017-12-04T08:52:37.721Z,1018.27
2017-12-04T08:53:37.696Z,1018.35
2017-12-04T08:54:37.676Z,1018.33
2017-12-04T08:55:37.658Z,1018.41
2017-12-04T08:56:37.637Z,1018.39
2017-12-04T08:57:37.617Z,1018.45
2017-12-04T08:58:37.597Z,1018.5
2017-12-04T08:59:37.576Z,1018.55
2017-12-04T09:00:37.556Z,1018.56
2017-12-04T09:01:37.537Z,1018.57
2017-12-04T09:02:37.517Z,1018.6
2017-12-04T09:03:37.496Z,1018.56
2017-12-04T09:04:39.767Z,1018.59
2017-12-04T09:05:37.458Z,1018.6
2017-12-04T09:06:37.437Z,1018.62
2017-12-04T09:07:37.420Z,1018.62
2017-12-04T09:08:37.397Z,1018.58
2017-12-04T09:09:37.380Z,1018.64
2017-12-04T09:10:37.361Z,1018.64
2017-12-04T09:11:37.339Z,1018.69
2017-12-04T09:12:37.318Z,1018.69
2017-12-04T09:13:37.300Z,1018.75
2017-12-04T09:14:37.279Z,1018.73
2017-12-04T09:15:37.265Z,1018.77
2017-12-04T09:16:37.240Z,1018.77
2017-12-04T09:17:37.227Z,1018.83
2017-12-04T09:18:37.199Z,1018.88
2017-12-04T09:19:37.180Z,1018.86
2017-12-04T09:20:37.166Z,1018.89
2017-12-04T09:21:37.140Z,1018.84
2017-12-04T09:22:37.123Z,1018.92
2017-12-04T09:23:37.101Z,1018.94
2017-12-04T09:24:37.081Z,1018.97
2017-12-04T09:25:37.060Z,1018.99
2017-12-04T09:26:37.041Z,1018.96
2017-12-04T09:27:37.023Z,1018.99
2017-12-04T09:28:37.003Z,1019
2017-12-04T09:29:36.983Z,1018.96
2017-12-04T09:30:36.964Z,1018.98
2017-12-04T09:31:36.945Z,1018.96
2017-12-04T09:32:36.923Z,1019
2017-12-04T09:33:36.904Z,1019.01
2017-12-04T09:34:36.885Z,1019.04
2017-12-04T09:35:36.866Z,1019.05
2017-12-04T09:36:36.847Z,1019.05
2017-12-04T09:37:36.826Z,1019.01
2017-12-04T09:38:36.809Z,1018.98
2017-12-04T09:39:36.793Z,1019
2017-12-04T09:40:36.769Z,1018.99
2017-12-04T09:41:36.750Z,1019
2017-12-04T09:42:36.739Z,1018.96
2017-12-04T09:43:36.740Z,1019.01
2017-12-04T09:44:36.695Z,1019.03
2017-12-04T09:45:36.681Z,1019.02
2017-12-04T09:46:36.659Z,1019.01
2017-12-04T09:47:36.637Z,1018.98
2017-12-04T09:48:36.621Z,1019.05
2017-12-04T09:49:36.603Z,1019.13
2017-12-04T09:50:36.583Z,1019.11
2017-12-04T09:51:36.563Z,1019.18
2017-12-04T09:52:36.546Z,1019.1
2017-12-04T09:53:36.526Z,1019.1
2017-12-04T09:54:36.508Z,1019.12
2017-12-04T09:55:36.489Z,1019.1
2017-12-04T09:56:36.471Z,1019.14
2017-12-04T09:57:36.451Z,1019.14
2017-12-04T09:58:36.431Z,1019.15
2017-12-04T09:59:36.413Z,1019.16
2017-12-04T10:00:36.394Z,1019.18
2017-12-04T10:01:36.381Z,1019.19
2017-12-04T10:02:36.356Z,1019.23
2017-12-04T10:03:36.338Z,1019.23
2017-12-04T10:04:36.320Z,1019.2
2017-12-04T10:05:36.300Z,1019.17
2017-12-04T10:06:36.281Z,1019.2
2017-12-04T10:07:36.261Z,1019.17
2017-12-04T10:08:36.245Z,1019.16
2017-12-04T10:09:36.223Z,1019.14
2017-12-04T10:10:36.210Z,1019.18
2017-12-04T10:11:36.187Z,1019.2
2017-12-04T10:12:36.165Z,1019.21
2017-12-04T10:13:36.146Z,1019.18
2017-12-04T10:14:36.129Z,1019.23
2017-12-04T10:15:36.109Z,1019.29
2017-12-04T10:16:36.089Z,1019.32
2017-12-04T10:17:36.070Z,1019.35
2017-12-04T10:18:36.050Z,1019.34
2017-12-04T10:19:36.036Z,1019.32
2017-12-04T10:20:36.014Z,1019.33
2017-12-04T10:21:35.999Z,1019.31
2017-12-04T10:22:35.976Z,1019.3
2017-12-04T10:23:35.956Z,1019.3
2017-12-04T10:24:35.939Z,1019.27
2017-12-04T10:25:35.918Z,1019.31
2017-12-04T10:26:35.898Z,1019.26
2017-12-04T10:27:35.878Z,1019.34
2017-12-04T10:28:35.864Z,1019.35
2017-12-04T10:29:35.851Z,1019.31
2017-12-04T10:30:35.822Z,1019.31
2017-12-04T10:31:35.804Z,1019.3
2017-12-04T10:32:35.783Z,1019.33
2017-12-04T10:33:35.763Z,1019.32
2017-12-04T10:34:35.750Z,1019.3
2017-12-04T10:35:35.726Z,1019.3
2017-12-04T10:36:35.705Z,1019.3
2017-12-04T10:37:35.700Z,1019.33
2017-12-04T10:38:35.669Z,1019.3
2017-12-04T10:39:35.658Z,1019.29
2017-12-04T10:40:35.629Z,1019.27
2017-12-04T10:41:35.610Z,1019.23
2017-12-04T10:42:35.589Z,1019.24
2017-12-04T10:43:35.577Z,1019.26
2017-12-04T10:44:35.552Z,1019.3
2017-12-04T10:45:35.534Z,1019.29
2017-12-04T10:46:35.513Z,1019.29
2017-12-04T10:47:35.498Z,1019.27
2017-12-04T10:48:35.478Z,1019.27
2017-12-04T10:49:35.456Z,1019.3
2017-12-04T10:50:35.440Z,1019.3
2017-12-04T10:51:35.419Z,1019.3
2017-12-04T10:52:35.400Z,1019.26
2017-12-04T10:53:35.381Z,1019.26
2017-12-04T10:54:35.362Z,1019.23
2017-12-04T10:55:35.341Z,1019.23
2017-12-04T10:56:35.323Z,1019.26
2017-12-04T10:57:35.305Z,1019.23
2017-12-04T10:58:35.286Z,1019.21
2017-12-04T10:59:35.266Z,1019.26
2017-12-04T11:00:35.249Z,1019.25
2017-12-04T11:01:35.226Z,1019.3
2017-12-04T11:02:35.210Z,1019.32
2017-12-04T11:03:35.190Z,1019.28
2017-12-04T11:04:35.174Z,1019.24
2017-12-04T11:05:35.167Z,1019.29
2017-12-04T11:06:35.133Z,1019.3
2017-12-04T11:07:35.120Z,1019.35
2017-12-04T11:08:35.095Z,1019.31
2017-12-04T11:09:35.076Z,1019.3
2017-12-04T11:10:35.059Z,1019.29
2017-12-04T11:11:35.037Z,1019.31
2017-12-04T11:12:35.021Z,1019.36
2017-12-04T11:13:35.006Z,1019.35
2017-12-04T11:14:34.981Z,1019.39
2017-12-04T11:15:34.960Z,1019.38
2017-12-04T11:16:34.942Z,1019.44
2017-12-04T11:17:34.926Z,1019.43
2017-12-04T11:18:34.914Z,1019.41
2017-12-04T11:19:34.884Z,1019.38
2017-12-04T11:20:34.865Z,1019.44
2017-12-04T11:21:34.848Z,1019.42
2017-12-04T11:22:34.828Z,1019.41
2017-12-04T11:23:34.808Z,1019.39
2017-12-04T11:24:34.789Z,1019.4
2017-12-04T11:25:34.771Z,1019.41
2017-12-04T11:26:34.752Z,1019.38
2017-12-04T11:27:34.738Z,1019.44
2017-12-04T11:28:34.716Z,1019.41
2017-12-04T11:29:34.695Z,1019.42
2017-12-04T11:30:34.682Z,1019.44
2017-12-04T11:31:34.660Z,1019.41
2017-12-04T11:32:34.640Z,1019.41
2017-12-04T11:33:34.683Z,1019.45
2017-12-04T11:34:34.603Z,1019.48
2017-12-04T11:35:34.583Z,1019.47
2017-12-04T11:36:34.564Z,1019.46
2017-12-04T11:37:34.546Z,1019.49
2017-12-04T11:38:34.526Z,1019.47
2017-12-04T11:39:34.507Z,1019.53
2017-12-04T11:40:34.489Z,1019.51
2017-12-04T11:41:34.678Z,1019.53
2017-12-04T11:42:34.453Z,1019.54
2017-12-04T11:43:34.433Z,1019.55
2017-12-04T11:44:34.413Z,1019.52
2017-12-04T11:45:34.394Z,1019.52
2017-12-04T11:46:34.382Z,1019.58
2017-12-04T11:47:34.355Z,1019.5
2017-12-04T11:48:34.337Z,1019.55
2017-12-04T11:49:34.319Z,1019.52
2017-12-04T11:50:34.310Z,1019.5
2017-12-04T11:51:34.282Z,1019.51
2017-12-04T11:52:34.263Z,1019.44
2017-12-04T11:53:34.245Z,1019.43
2017-12-04T11:54:34.226Z,1019.41
2017-12-04T11:55:34.208Z,1019.44
2017-12-04T11:56:34.189Z,1019.4
2017-12-04T11:57:34.168Z,1019.41
2017-12-04T11:58:34.152Z,1019.45
2017-12-04T11:59:34.134Z,1019.45
2017-12-04T12:00:34.114Z,1019.42
2017-12-04T12:01:34.102Z,1019.43
2017-12-04T12:02:34.078Z,1019.36
2017-12-04T12:03:34.060Z,1019.42
2017-12-04T12:04:34.044Z,1019.4
2017-12-04T12:05:34.024Z,1019.39
2017-12-04T12:06:34.004Z,1019.41
2017-12-04T12:07:33.987Z,1019.35
2017-12-04T12:08:33.980Z,1019.3
2017-12-04T12:09:33.948Z,1019.31